createdAt,value
2019-03-26T00:00:34.061Z,2.70
2019-03-26T00:03:04.251Z,1.97
2019-03-26T00:05:34.441Z,2.73
2019-03-26T00:08:04.996Z,2.43
2019-03-26T00:10:35.667Z,2.33
2019-03-26T00:13:06.999Z,3.77
2019-03-26T00:15:37.617Z,2.98
2019-03-26T00:18:08.406Z,2.43
2019-03-26T00:20:38.392Z,2.47
2019-03-26T00:23:10.144Z,3.57
2019-03-26T00:25:40.333Z,3.23
2019-03-26T00:28:10.245Z,2.13
2019-03-26T00:30:40.651Z,3.13
2019-03-26T00:33:10.905Z,2.90
2019-03-26T00:35:40.777Z,2.30
2019-03-26T00:38:11.962Z,3.03
2019-03-26T00:40:42.936Z,2.50
2019-03-26T00:43:13.269Z,4.53
2019-03-26T00:45:43.416Z,2.87
2019-03-26T00:48:13.366Z,3.10
2019-03-26T00:50:44.711Z,2.03
2019-03-26T00:53:16.185Z,2.40
2019-03-26T00:55:46.071Z,2.70
2019-03-26T00:58:16.131Z,2.03
2019-03-26T01:00:49.242Z,3.00
2019-03-26T01:03:23.937Z,3.47
2019-03-26T01:05:53.839Z,2.63
2019-03-26T01:08:24.435Z,3.03
2019-03-26T01:10:54.393Z,2.83
2019-03-26T01:13:24.401Z,2.23
2019-03-26T01:15:55.379Z,2.43
2019-03-26T01:18:25.423Z,2.83
2019-03-26T01:20:55.615Z,2.63
2019-03-26T01:23:25.788Z,2.17
2019-03-26T01:25:55.782Z,3.63
2019-03-26T01:28:25.720Z,3.60
2019-03-26T01:30:55.832Z,2.23
2019-03-26T01:33:28.903Z,2.70
2019-03-26T01:35:59.072Z,3.97
2019-03-26T01:38:30.483Z,2.13
2019-03-26T01:41:00.393Z,4.17
2019-03-26T01:43:31.673Z,2.90
2019-03-26T01:46:02.142Z,2.60
2019-03-26T01:48:32.395Z,2.77
2019-03-26T01:51:02.824Z,3.97
2019-03-26T01:53:33.555Z,3.47
2019-03-26T01:56:03.820Z,4.13
2019-03-26T01:58:34.462Z,3.00
2019-03-26T02:01:04.681Z,2.40
2019-03-26T02:03:34.518Z,2.53
2019-03-26T02:06:05.156Z,2.87
2019-03-26T02:08:35.321Z,2.53
2019-03-26T02:11:09.244Z,3.00
2019-03-26T02:13:39.972Z,3.20
2019-03-26T02:16:11.037Z,3.80
2019-03-26T02:18:41.366Z,2.93
2019-03-26T02:21:11.679Z,2.97
2019-03-26T02:23:42.224Z,2.50
2019-03-26T02:26:12.748Z,3.37
2019-03-26T02:28:43.472Z,2.83
2019-03-26T02:31:13.379Z,3.73
2019-03-26T02:33:43.511Z,3.53
2019-03-26T02:36:13.868Z,3.70
2019-03-26T02:38:43.890Z,3.30
2019-03-26T02:41:14.487Z,2.47
2019-03-26T02:43:44.863Z,3.27
2019-03-26T02:46:14.709Z,3.07
2019-03-26T02:48:44.777Z,3.23
2019-03-26T02:51:15.849Z,2.77
2019-03-26T02:53:46.281Z,4.63
2019-03-26T02:56:16.438Z,3.50
2019-03-26T02:58:48.170Z,2.77
2019-03-26T03:01:18.085Z,2.83
2019-03-26T03:03:48.681Z,3.27
2019-03-26T03:06:19.039Z,3.20
2019-03-26T03:08:49.604Z,2.77
2019-03-26T03:11:19.681Z,3.67
2019-03-26T03:13:50.549Z,3.00
2019-03-26T03:16:20.618Z,3.17
2019-03-26T03:18:50.509Z,2.97
2019-03-26T03:21:20.635Z,3.50
2019-03-26T03:23:50.524Z,2.80
2019-03-26T03:26:20.398Z,3.43
2019-03-26T03:28:51.578Z,2.97
2019-03-26T03:31:22.122Z,2.83
2019-03-26T03:33:52.516Z,3.13
2019-03-26T03:36:22.867Z,3.00
2019-03-26T03:38:52.960Z,3.40
2019-03-26T03:41:23.327Z,3.00
2019-03-26T03:43:53.350Z,3.10
2019-03-26T03:46:23.987Z,2.60
2019-03-26T03:48:55.470Z,3.13
2019-03-26T03:51:27.589Z,2.80
2019-03-26T03:53:58.350Z,2.50
2019-03-26T03:56:31.367Z,2.37
2019-03-26T03:59:02.506Z,3.20
2019-03-26T04:01:32.660Z,2.80
2019-03-26T04:04:04.919Z,3.00
2019-03-26T04:06:35.144Z,2.60
2019-03-26T04:09:06.578Z,2.63
2019-03-26T04:11:36.452Z,2.50
2019-03-26T04:14:06.910Z,2.80
2019-03-26T04:16:37.297Z,2.97
2019-03-26T04:19:10.277Z,2.60
2019-03-26T04:21:44.423Z,2.93
2019-03-26T04:24:16.390Z,2.83
2019-03-26T04:26:46.444Z,2.20
2019-03-26T04:29:16.318Z,2.80
2019-03-26T04:31:46.539Z,2.43
2019-03-26T04:34:16.554Z,2.80
2019-03-26T04:36:46.517Z,2.27
2019-03-26T04:39:16.399Z,1.83
2019-03-26T04:41:47.252Z,2.40
2019-03-26T04:44:17.397Z,2.67
2019-03-26T04:46:47.889Z,2.77
2019-03-26T04:49:18.554Z,2.77
2019-03-26T04:51:48.657Z,2.87
2019-03-26T04:54:18.536Z,2.13
2019-03-26T04:56:48.677Z,2.53
2019-03-26T04:59:19.493Z,1.70
2019-03-26T05:01:49.617Z,2.40
2019-03-26T05:04:20.093Z,2.23
2019-03-26T05:06:49.852Z,2.37
2019-03-26T05:09:19.652Z,2.80
2019-03-26T05:11:50.159Z,2.23
2019-03-26T05:14:20.005Z,2.07
2019-03-26T05:16:50.404Z,2.73
2019-03-26T05:19:20.921Z,2.00
2019-03-26T05:21:51.544Z,1.57
2019-03-26T05:24:21.841Z,2.50
2019-03-26T05:26:52.223Z,2.43
2019-03-26T05:29:22.649Z,2.20
2019-03-26T05:31:53.569Z,2.63
2019-03-26T05:34:23.463Z,1.70
2019-03-26T05:36:55.223Z,2.80
2019-03-26T05:39:25.783Z,2.03
2019-03-26T05:41:55.957Z,2.40
2019-03-26T05:44:25.922Z,2.10
2019-03-26T05:46:56.954Z,2.83
2019-03-26T05:49:27.484Z,2.50
2019-03-26T05:52:00.099Z,2.10
2019-03-26T05:54:30.245Z,2.23
2019-03-26T05:57:00.372Z,2.47
2019-03-26T05:59:31.378Z,3.07
2019-03-26T06:02:13.432Z,1.80
2019-03-26T06:04:33.319Z,2.73
2019-03-26T06:07:04.937Z,2.10
2019-03-26T06:09:35.595Z,3.53
2019-03-26T06:12:08.001Z,2.10
2019-03-26T06:14:38.950Z,2.60
2019-03-26T06:17:09.593Z,2.93
2019-03-26T06:19:41.351Z,2.37
2019-03-26T06:22:11.356Z,2.23
2019-03-26T06:24:41.681Z,2.17
2019-03-26T06:27:11.546Z,2.87
2019-03-26T06:29:42.204Z,3.20
2019-03-26T06:32:13.825Z,2.20
2019-03-26T06:34:44.246Z,2.27
2019-03-26T06:37:18.191Z,2.20
2019-03-26T06:39:47.580Z,2.40
2019-03-26T06:42:17.536Z,3.07
2019-03-26T06:44:47.313Z,2.70
2019-03-26T06:47:17.120Z,2.77
2019-03-26T06:49:52.258Z,3.53
2019-03-26T06:52:23.698Z,2.87
2019-03-26T06:54:54.192Z,2.83
2019-03-26T06:57:34.934Z,3.17
2019-03-26T06:59:56.704Z,2.53
2019-03-26T07:02:28.749Z,2.67
2019-03-26T07:04:58.887Z,2.87
2019-03-26T07:07:31.916Z,2.87
2019-03-26T07:10:00.685Z,2.60
2019-03-26T07:12:31.129Z,2.17
2019-03-26T07:15:02.178Z,3.13
2019-03-26T07:17:33.128Z,2.30
2019-03-26T07:20:03.207Z,3.50
2019-03-26T07:22:33.751Z,3.40
2019-03-26T07:25:04.759Z,2.97
2019-03-26T07:27:35.322Z,3.00
2019-03-26T07:30:07.140Z,3.63
2019-03-26T07:32:37.282Z,2.77
2019-03-26T07:35:07.729Z,2.97
2019-03-26T07:37:45.036Z,2.47
2019-03-26T07:40:10.776Z,2.40
2019-03-26T07:42:40.851Z,2.30
2019-03-26T07:45:10.885Z,2.27
2019-03-26T07:47:40.935Z,3.03
2019-03-26T07:50:13.956Z,2.87
2019-03-26T07:52:44.108Z,2.87
2019-03-26T07:55:14.205Z,2.63
2019-03-26T07:57:44.137Z,3.77
2019-03-26T08:00:15.122Z,3.27
2019-03-26T08:02:45.712Z,2.87
2019-03-26T08:05:15.556Z,2.60
2019-03-26T08:07:57.472Z,2.80
2019-03-26T08:10:17.933Z,3.20
2019-03-26T08:12:48.071Z,3.07
2019-03-26T08:15:20.177Z,3.43
2019-03-26T08:17:49.937Z,2.80
2019-03-26T08:20:20.352Z,3.30
2019-03-26T08:22:50.404Z,2.57
2019-03-26T08:25:20.577Z,2.33
2019-03-26T08:27:50.337Z,2.67
2019-03-26T08:30:23.534Z,3.47
2019-03-26T08:32:54.459Z,2.63
2019-03-26T08:35:24.942Z,2.77
2019-03-26T08:37:55.351Z,3.07
2019-03-26T08:40:25.633Z,2.70
2019-03-26T08:42:55.453Z,2.97
2019-03-26T08:45:25.330Z,2.30
2019-03-26T08:47:55.372Z,3.33
2019-03-26T08:50:26.027Z,3.03
2019-03-26T08:52:56.056Z,2.77
2019-03-26T08:55:25.965Z,2.80
2019-03-26T08:57:56.050Z,3.13
2019-03-26T09:00:25.848Z,3.43
2019-03-26T09:02:55.969Z,2.90
2019-03-26T09:05:26.308Z,3.27
2019-03-26T09:07:56.852Z,3.17
2019-03-26T09:10:26.931Z,2.80
2019-03-26T09:12:56.741Z,2.60
2019-03-26T09:15:26.788Z,2.37
2019-03-26T09:17:57.497Z,3.00
2019-03-26T09:20:28.194Z,3.20
2019-03-26T09:23:01.370Z,3.00
2019-03-26T09:25:31.178Z,2.97
2019-03-26T09:28:00.979Z,2.57
2019-03-26T09:30:31.500Z,2.97
2019-03-26T09:33:01.641Z,3.20
2019-03-26T09:35:33.475Z,4.10
2019-03-26T09:38:03.831Z,3.27
2019-03-26T09:40:34.540Z,3.30
2019-03-26T09:43:04.628Z,3.17
2019-03-26T09:45:34.517Z,4.07
2019-03-26T09:48:04.426Z,3.60
2019-03-26T09:50:37.772Z,2.93
2019-03-26T09:53:08.050Z,3.70
2019-03-26T09:55:38.143Z,2.33
2019-03-26T09:58:09.278Z,2.50
2019-03-26T10:00:39.636Z,3.03
2019-03-26T10:03:09.666Z,2.63
2019-03-26T10:05:39.972Z,2.07
2019-03-26T10:08:10.533Z,1.97
2019-03-26T10:10:40.975Z,1.93
2019-03-26T10:13:11.191Z,2.67
2019-03-26T10:15:41.648Z,2.10
2019-03-26T10:18:11.764Z,1.87
2019-03-26T10:20:41.872Z,1.60
2019-03-26T10:23:13.052Z,1.97
2019-03-26T10:25:43.091Z,1.93
2019-03-26T10:28:13.615Z,2.60
2019-03-26T10:30:44.300Z,1.93
2019-03-26T10:33:14.541Z,2.17
2019-03-26T10:35:44.762Z,2.17
2019-03-26T10:38:14.723Z,2.80
2019-03-26T10:40:44.648Z,1.97
2019-03-26T10:43:15.018Z,2.13
2019-03-26T10:45:45.716Z,2.10
2019-03-26T10:48:15.902Z,2.10
2019-03-26T10:50:45.809Z,2.40
2019-03-26T10:53:16.052Z,1.77
2019-03-26T10:55:45.952Z,1.90
2019-03-26T10:58:17.730Z,2.37
2019-03-26T11:00:48.314Z,2.00
2019-03-26T11:03:19.172Z,2.40
2019-03-26T11:05:49.421Z,2.33
2019-03-26T11:08:19.556Z,2.73
2019-03-26T11:10:49.953Z,2.33
2019-03-26T11:13:23.154Z,2.83
2019-03-26T11:15:55.978Z,2.73
2019-03-26T11:18:25.913Z,1.77
2019-03-26T11:21:02.694Z,2.40
2019-03-26T11:23:28.163Z,2.70
2019-03-26T11:25:58.200Z,2.87
2019-03-26T11:28:28.177Z,3.40
2019-03-26T11:30:58.645Z,1.93
2019-03-26T11:33:28.782Z,2.47
2019-03-26T11:35:59.750Z,2.37
2019-03-26T11:38:32.029Z,2.40
2019-03-26T11:41:01.623Z,3.20
2019-03-26T11:43:32.002Z,2.70
2019-03-26T11:46:02.215Z,2.13
2019-03-26T11:48:32.491Z,2.10
2019-03-26T11:51:02.661Z,1.93
2019-03-26T11:53:32.773Z,2.53
2019-03-26T11:56:10.704Z,2.97
2019-03-26T11:58:40.652Z,2.37
2019-03-26T12:01:11.240Z,2.27
2019-03-26T12:03:41.202Z,2.30
2019-03-26T12:06:13.428Z,2.43
2019-03-26T12:08:43.647Z,2.37
2019-03-26T12:11:14.326Z,2.23
2019-03-26T12:13:44.574Z,2.60
2019-03-26T12:16:14.451Z,2.30
2019-03-26T12:18:47.892Z,2.33
2019-03-26T12:21:18.259Z,2.20
2019-03-26T12:23:48.763Z,3.47
2019-03-26T12:26:18.753Z,3.23
2019-03-26T12:28:49.216Z,2.93
2019-03-26T12:31:19.637Z,2.83
2019-03-26T12:33:49.720Z,2.67
2019-03-26T12:36:19.983Z,3.10
2019-03-26T12:38:50.207Z,2.50
2019-03-26T12:41:20.653Z,2.30
2019-03-26T12:43:51.666Z,3.10
2019-03-26T12:46:21.818Z,2.40
2019-03-26T12:48:52.355Z,2.43
2019-03-26T12:51:22.668Z,3.27
2019-03-26T12:53:53.598Z,2.13
2019-03-26T12:56:24.188Z,2.50
2019-03-26T12:58:54.933Z,2.50
2019-03-26T13:01:25.055Z,2.63
2019-03-26T13:03:54.893Z,2.30
2019-03-26T13:06:25.203Z,2.47
2019-03-26T13:08:55.019Z,2.37
2019-03-26T13:11:24.951Z,3.27
2019-03-26T13:13:55.611Z,2.97
2019-03-26T13:16:26.079Z,2.57
2019-03-26T13:18:56.313Z,3.33
2019-03-26T13:21:26.784Z,4.03
2019-03-26T13:23:57.345Z,2.67
2019-03-26T13:26:27.253Z,2.43
2019-03-26T13:28:57.793Z,2.90
2019-03-26T13:31:28.128Z,3.43
2019-03-26T13:33:58.377Z,2.20
2019-03-26T13:36:28.576Z,2.77
2019-03-26T13:38:59.562Z,3.00
2019-03-26T13:41:30.075Z,2.43
2019-03-26T13:44:00.897Z,2.60
2019-03-26T13:46:30.657Z,3.07
2019-03-26T13:49:03.400Z,3.27
2019-03-26T13:51:36.911Z,2.50
2019-03-26T13:54:05.383Z,2.67
2019-03-26T13:56:35.686Z,2.30
2019-03-26T13:59:07.512Z,2.90
2019-03-26T14:01:37.998Z,2.30
2019-03-26T14:04:07.940Z,2.20
2019-03-26T14:06:38.190Z,2.33
2019-03-26T14:09:09.103Z,2.37
2019-03-26T14:11:38.993Z,2.63
2019-03-26T14:14:09.552Z,2.00
2019-03-26T14:16:39.470Z,2.20
2019-03-26T14:19:09.324Z,2.63
2019-03-26T14:21:39.985Z,3.03
2019-03-26T14:24:13.051Z,2.47
2019-03-26T14:26:41.483Z,2.20
2019-03-26T14:29:11.332Z,2.83
2019-03-26T14:31:41.857Z,2.77
2019-03-26T14:34:11.807Z,3.30
2019-03-26T14:36:41.730Z,2.13
2019-03-26T14:39:14.781Z,2.87
2019-03-26T14:41:44.845Z,2.60
2019-03-26T14:44:14.700Z,3.27
2019-03-26T14:46:50.732Z,3.17
2019-03-26T14:49:21.523Z,2.90
2019-03-26T14:51:52.353Z,2.83
2019-03-26T14:54:23.127Z,2.67
2019-03-26T14:56:52.975Z,3.53
2019-03-26T14:59:23.503Z,2.90
2019-03-26T15:01:53.791Z,3.03
2019-03-26T15:04:24.332Z,4.53
2019-03-26T15:06:54.572Z,3.93
2019-03-26T15:09:24.736Z,3.20
2019-03-26T15:11:54.653Z,3.60
2019-03-26T15:14:24.813Z,3.63
2019-03-26T15:16:54.983Z,5.13
2019-03-26T15:19:25.125Z,5.70
2019-03-26T15:21:55.056Z,4.27
2019-03-26T15:24:25.782Z,4.57
2019-03-26T15:26:56.491Z,3.47
2019-03-26T15:29:26.545Z,3.50
2019-03-26T15:31:56.866Z,4.47
2019-03-26T15:34:36.057Z,4.83
2019-03-26T15:36:59.207Z,5.00
2019-03-26T15:39:29.119Z,5.73
2019-03-26T15:41:59.576Z,4.47
2019-03-26T15:44:30.023Z,4.57
2019-03-26T15:47:00.016Z,4.60
2019-03-26T15:49:29.988Z,4.43
2019-03-26T15:52:01.072Z,5.40
2019-03-26T15:54:37.675Z,5.47
2019-03-26T15:57:11.084Z,5.60
2019-03-26T15:59:42.941Z,6.37
2019-03-26T16:02:13.503Z,6.90
2019-03-26T16:04:43.953Z,6.23
2019-03-26T16:07:13.801Z,7.90
2019-03-26T16:09:45.166Z,5.83
2019-03-26T16:12:15.117Z,6.27
2019-03-26T16:14:45.676Z,6.93
2019-03-26T16:17:16.045Z,6.67
2019-03-26T16:19:48.619Z,6.73
2019-03-26T16:22:18.817Z,6.90
2019-03-26T16:24:53.175Z,6.87
2019-03-26T16:27:22.556Z,6.03
2019-03-26T16:29:53.801Z,5.40
2019-03-26T16:32:24.463Z,5.47
2019-03-26T16:34:54.314Z,5.00
2019-03-26T16:37:26.140Z,5.77
2019-03-26T16:39:57.525Z,4.97
2019-03-26T16:42:29.210Z,5.53
2019-03-26T16:45:01.539Z,5.00
2019-03-26T16:47:31.437Z,6.17
2019-03-26T16:50:01.424Z,5.77
2019-03-26T16:52:31.402Z,5.93
2019-03-26T16:55:01.540Z,5.53
2019-03-26T16:57:31.933Z,4.60
2019-03-26T17:00:02.058Z,4.73
2019-03-26T17:02:35.682Z,5.43
2019-03-26T17:05:06.089Z,4.83
2019-03-26T17:07:39.586Z,5.53
2019-03-26T17:10:09.922Z,5.13
2019-03-26T17:13:08.318Z,5.47
2019-03-26T17:15:46.461Z,5.27
2019-03-26T17:18:25.661Z,5.70
2019-03-26T17:20:58.445Z,5.83
2019-03-26T17:23:36.048Z,5.10
2019-03-26T17:26:30.193Z,6.47
2019-03-26T17:29:00.397Z,5.70
2019-03-26T17:31:30.968Z,5.87
2019-03-26T17:34:04.262Z,6.23
2019-03-26T17:36:39.370Z,6.60
2019-03-26T17:39:14.672Z,5.00
2019-03-26T17:41:47.795Z,5.13
2019-03-26T17:44:20.796Z,5.10
2019-03-26T17:46:51.065Z,6.00
2019-03-26T17:49:39.006Z,5.80
2019-03-26T17:52:20.301Z,5.53
2019-03-26T17:54:50.849Z,4.73
2019-03-26T17:57:20.791Z,5.57
2019-03-26T17:59:50.894Z,5.87
2019-03-26T18:02:26.908Z,5.13
2019-03-26T18:04:59.441Z,5.53
2019-03-26T18:07:30.074Z,6.23
2019-03-26T18:10:01.263Z,5.60
2019-03-26T18:12:31.702Z,5.60
2019-03-26T18:15:01.870Z,5.73
2019-03-26T18:17:34.690Z,6.00
2019-03-26T18:20:04.887Z,5.23
2019-03-26T18:22:34.881Z,4.90
2019-03-26T18:25:08.001Z,4.57
2019-03-26T18:27:37.979Z,6.60
2019-03-26T18:30:10.405Z,5.80
2019-03-26T18:32:40.545Z,5.53
2019-03-26T18:35:12.045Z,5.57
2019-03-26T18:37:42.889Z,7.20
2019-03-26T18:40:13.147Z,4.73
2019-03-26T18:42:44.481Z,7.47
2019-03-26T18:45:20.440Z,6.77
2019-03-26T18:47:50.390Z,7.97
2019-03-26T18:50:20.364Z,9.60
2019-03-26T18:52:50.150Z,5.83
2019-03-26T18:55:20.808Z,6.17
2019-03-26T18:57:50.639Z,4.67
2019-03-26T19:00:33.199Z,6.17
2019-03-26T19:03:03.154Z,9.87
2019-03-26T19:05:33.709Z,5.30
2019-03-26T19:08:04.474Z,4.90
2019-03-26T19:10:34.368Z,7.85
2019-03-26T19:13:18.044Z,5.70
2019-03-26T19:15:36.654Z,6.90
2019-03-26T19:18:06.603Z,12.07
2019-03-26T19:20:38.760Z,6.30
2019-03-26T19:23:08.729Z,6.03
2019-03-26T19:25:38.807Z,11.30
2019-03-26T19:28:09.006Z,12.30
2019-03-26T19:30:39.007Z,10.57
2019-03-26T19:33:08.998Z,6.50
2019-03-26T19:35:38.898Z,6.00
2019-03-26T19:38:08.839Z,12.30
2019-03-26T19:40:38.742Z,9.20
2019-03-26T19:43:12.031Z,6.50
2019-03-26T19:45:42.190Z,8.80
2019-03-26T19:48:12.035Z,5.67
2019-03-26T19:50:41.960Z,8.93
2019-03-26T19:53:12.129Z,5.40
2019-03-26T19:55:45.563Z,9.87
2019-03-26T19:58:15.510Z,4.83
2019-03-26T20:00:45.949Z,6.13
2019-03-26T20:03:16.161Z,10.90
2019-03-26T20:05:49.199Z,5.77
2019-03-26T20:08:19.165Z,8.17
2019-03-26T20:10:49.600Z,4.50
2019-03-26T20:13:24.524Z,4.57
2019-03-26T20:15:51.364Z,6.10
2019-03-26T20:18:21.303Z,4.00
2019-03-26T20:20:51.196Z,4.20
2019-03-26T20:23:21.080Z,6.40
2019-03-26T20:25:50.873Z,6.50
2019-03-26T20:28:20.935Z,4.27
2019-03-26T20:30:51.731Z,3.43
2019-03-26T20:33:22.036Z,3.90
2019-03-26T20:35:54.566Z,3.67
2019-03-26T20:38:25.428Z,3.23
2019-03-26T20:40:57.445Z,3.27
2019-03-26T20:43:36.776Z,3.97
2019-03-26T20:46:00.107Z,3.47
2019-03-26T20:48:30.736Z,3.13
2019-03-26T20:51:00.545Z,4.57
2019-03-26T20:53:30.355Z,3.90
2019-03-26T20:56:00.376Z,3.30
2019-03-26T20:58:30.935Z,3.13
2019-03-26T21:01:01.268Z,3.37
2019-03-26T21:03:31.410Z,3.27
2019-03-26T21:06:01.685Z,3.50
2019-03-26T21:08:31.594Z,4.60
2019-03-26T21:11:02.006Z,3.03
2019-03-26T21:13:32.182Z,3.20
2019-03-26T21:16:02.394Z,2.80
2019-03-26T21:18:32.354Z,4.43
2019-03-26T21:21:04.351Z,3.50
2019-03-26T21:23:34.627Z,2.93
2019-03-26T21:26:04.646Z,2.83
2019-03-26T21:28:34.560Z,4.73
2019-03-26T21:31:04.655Z,7.47
2019-03-26T21:33:34.561Z,3.67
2019-03-26T21:36:05.512Z,6.17
2019-03-26T21:38:35.706Z,4.20
2019-03-26T21:41:05.865Z,9.67
2019-03-26T21:43:37.862Z,3.87
2019-03-26T21:46:07.725Z,2.63
2019-03-26T21:48:37.489Z,2.47
2019-03-26T21:51:08.125Z,2.77
2019-03-26T21:53:38.489Z,3.23
2019-03-26T21:56:09.255Z,2.33
2019-03-26T21:58:39.323Z,2.20
2019-03-26T22:01:11.431Z,1.97
2019-03-26T22:03:42.211Z,2.57
2019-03-26T22:06:15.368Z,3.57
2019-03-26T22:08:47.575Z,2.83
2019-03-26T22:11:18.204Z,2.33
2019-03-26T22:13:48.423Z,2.20
2019-03-26T22:16:20.566Z,2.47
2019-03-26T22:18:50.875Z,2.63
2019-03-26T22:21:20.951Z,2.63
2019-03-26T22:23:51.154Z,3.03
2019-03-26T22:26:21.023Z,3.00
2019-03-26T22:28:51.291Z,2.73
2019-03-26T22:31:21.491Z,2.40
2019-03-26T22:33:51.264Z,3.60
2019-03-26T22:36:21.185Z,2.70
2019-03-26T22:38:51.865Z,3.10
2019-03-26T22:41:22.788Z,3.40
2019-03-26T22:43:55.103Z,3.20
2019-03-26T22:46:24.150Z,2.37
2019-03-26T22:48:54.006Z,3.07
2019-03-26T22:51:24.028Z,2.67
2019-03-26T22:53:53.873Z,2.63
2019-03-26T22:56:25.665Z,2.40
2019-03-26T22:58:55.505Z,2.90
2019-03-26T23:01:25.557Z,2.37
2019-03-26T23:03:55.394Z,2.33
2019-03-26T23:06:25.257Z,2.80
2019-03-26T23:08:55.244Z,2.70
2019-03-26T23:11:25.103Z,1.87
2019-03-26T23:13:54.966Z,2.17
2019-03-26T23:16:24.784Z,2.67
2019-03-26T23:18:54.641Z,2.10
2019-03-26T23:21:24.467Z,2.43
2019-03-26T23:23:54.445Z,4.00
2019-03-26T23:26:24.236Z,2.20
2019-03-26T23:28:54.005Z,1.80
2019-03-26T23:31:23.862Z,2.13
2019-03-26T23:33:53.632Z,2.00
2019-03-26T23:36:23.377Z,2.13
2019-03-26T23:38:53.231Z,2.40
2019-03-26T23:41:23.027Z,2.20
2019-03-26T23:43:52.752Z,1.93
2019-03-26T23:46:22.624Z,1.57
2019-03-26T23:48:52.529Z,2.10
2019-03-26T23:51:22.395Z,1.97
2019-03-26T23:53:52.473Z,2.90
2019-03-26T23:56:22.583Z,2.50
2019-03-26T23:58:52.680Z,3.40
